Ashley, Michigan
Current Conditions -  °F | °C
As of 10:32 AM on Friday 28 Nov 2014 (Local Time) from KAMN Reporting Station
Overcast Overcast  
Wind Chill: 13°   Ceiling: 3200
Heat Index: 22°   Visibility: 10mi
Dew Point: 12°   Wind: 8mph
Humidity: 66%   Direction: 170°S
Pressure: 30.27"   Gusts: NA
Location:  43.19°N, 84.47°W
Report Text: KAMN 281532Z AUTO 17007KT 10SM OVC032 M05/M11 A3027 RMK AO2 T10551110
Loading
Personal Weather Stations






























Interactive Weather Map New forecast layout! Learn more

10-Day Weather Forecast

Advertisements
Track Severe Weather on mobile